sensor_id;sensor_type;location;lat;lon;timestamp;temperature;humidity
47521;DHT22;32291;52.010;4.446;2024-03-06T00:00:30;6.70;99.90
47521;DHT22;32291;52.010;4.446;2024-03-06T00:01:39;6.90;99.90
47521;DHT22;32291;52.010;4.446;2024-03-06T00:02:46;6.80;99.90
47521;DHT22;32291;52.010;4.446;2024-03-06T00:03:53;6.80;99.90
47521;DHT22;32291;52.010;4.446;2024-03-06T00:04:59;6.80;99.90
47521;DHT22;32291;52.010;4.446;2024-03-06T00:06:06;6.80;99.90
47521;DHT22;32291;52.010;4.446;2024-03-06T00:07:13;6.70;99.90
47521;DHT22;32291;52.010;4.446;2024-03-06T00:08:20;6.80;99.90
47521;DHT22;32291;52.010;4.446;2024-03-06T00:09:22;6.70;99.90
47521;DHT22;32291;52.010;4.446;2024-03-06T00:10:24;6.80;99.90
47521;DHT22;32291;52.010;4.446;2024-03-06T00:11:31;6.80;99.90
47521;DHT22;32291;52.010;4.446;2024-03-06T00:12:39;6.80;99.90
47521;DHT22;32291;52.010;4.446;2024-03-06T00:13:46;6.80;99.90
47521;DHT22;32291;52.010;4.446;2024-03-06T00:14:49;6.80;99.90
47521;DHT22;32291;52.010;4.446;2024-03-06T00:15:56;6.80;99.90
47521;DHT22;32291;52.010;4.446;2024-03-06T00:17:03;6.80;99.90
47521;DHT22;32291;52.010;4.446;2024-03-06T00:18:11;6.80;99.90
47521;DHT22;32291;52.010;4.446;2024-03-06T00:19:18;6.80;99.90
47521;DHT22;32291;52.010;4.446;2024-03-06T00:20:22;6.80;99.90
47521;DHT22;32291;52.010;4.446;2024-03-06T00:21:24;6.80;99.90
47521;DHT22;32291;52.010;4.446;2024-03-06T00:22:31;6.80;99.90
47521;DHT22;32291;52.010;4.446;2024-03-06T00:23:38;6.80;99.90
47521;DHT22;32291;52.010;4.446;2024-03-06T00:24:45;6.80;99.90
47521;DHT22;32291;52.010;4.446;2024-03-06T00:25:52;6.80;99.90
47521;DHT22;32291;52.010;4.446;2024-03-06T00:26:59;6.80;99.90
47521;DHT22;32291;52.010;4.446;2024-03-06T00:28:06;6.80;99.90
47521;DHT22;32291;52.010;4.446;2024-03-06T00:29:14;6.90;99.90
47521;DHT22;32291;52.010;4.446;2024-03-06T00:30:21;6.80;99.90
47521;DHT22;32291;52.010;4.446;2024-03-06T00:31:31;6.80;99.90
47521;DHT22;32291;52.010;4.446;2024-03-06T00:32:33;6.80;99.90
47521;DHT22;32291;52.010;4.446;2024-03-06T00:33:41;6.80;99.90
47521;DHT22;32291;52.010;4.446;2024-03-06T00:34:48;6.80;99.90
47521;DHT22;32291;52.010;4.446;2024-03-06T00:35:56;6.80;99.90
47521;DHT22;32291;52.010;4.446;2024-03-06T00:37:03;6.80;99.90
47521;DHT22;32291;52.010;4.446;2024-03-06T00:38:10;6.80;99.90
47521;DHT22;32291;52.010;4.446;2024-03-06T00:39:17;6.80;99.90
47521;DHT22;32291;52.010;4.446;2024-03-06T00:40:19;6.80;99.90
47521;DHT22;32291;52.010;4.446;2024-03-06T00:41:26;6.80;99.90
47521;DHT22;32291;52.010;4.446;2024-03-06T00:42:33;6.80;99.90
47521;DHT22;32291;52.010;4.446;2024-03-06T00:43:41;6.80;99.90
47521;DHT22;32291;52.010;4.446;2024-03-06T00:44:48;6.80;99.90
47521;DHT22;32291;52.010;4.446;2024-03-06T00:45:55;6.80;99.90
47521;DHT22;32291;52.010;4.446;2024-03-06T00:47:02;6.90;99.90
47521;DHT22;32291;52.010;4.446;2024-03-06T00:48:04;6.80;99.90
47521;DHT22;32291;52.010;4.446;2024-03-06T00:49:07;6.80;99.90
47521;DHT22;32291;52.010;4.446;2024-03-06T00:50:09;6.80;99.90
47521;DHT22;32291;52.010;4.446;2024-03-06T00:51:16;6.90;99.90
47521;DHT22;32291;52.010;4.446;2024-03-06T00:52:18;6.80;99.90
47521;DHT22;32291;52.010;4.446;2024-03-06T00:53:25;6.80;99.90
47521;DHT22;32291;52.010;4.446;2024-03-06T00:54:32;6.90;99.90
47521;DHT22;32291;52.010;4.446;2024-03-06T00:55:34;6.80;99.90
47521;DHT22;32291;52.010;4.446;2024-03-06T00:56:41;6.80;99.90
47521;DHT22;32291;52.010;4.446;2024-03-06T00:57:43;6.90;99.90
47521;DHT22;32291;52.010;4.446;2024-03-06T00:58:50;6.90;99.90
47521;DHT22;32291;52.010;4.446;2024-03-06T00:59:56;6.80;99.90
47521;DHT22;32291;52.010;4.446;2024-03-06T01:01:04;6.80;99.90
47521;DHT22;32291;52.010;4.446;2024-03-06T01:02:10;6.80;99.90
47521;DHT22;32291;52.010;4.446;2024-03-06T01:03:17;6.90;99.90
47521;DHT22;32291;52.010;4.446;2024-03-06T01:04:24;6.90;99.90
47521;DHT22;32291;52.010;4.446;2024-03-06T01:05:26;6.90;99.90
47521;DHT22;32291;52.010;4.446;2024-03-06T01:06:29;6.90;99.90
47521;DHT22;32291;52.010;4.446;2024-03-06T01:07:38;6.90;99.90
47521;DHT22;32291;52.010;4.446;2024-03-06T01:08:45;6.90;99.90
47521;DHT22;32291;52.010;4.446;2024-03-06T01:09:48;6.90;99.90
47521;DHT22;32291;52.010;4.446;2024-03-06T01:10:54;6.90;99.90
47521;DHT22;32291;52.010;4.446;2024-03-06T01:12:01;6.90;99.90
47521;DHT22;32291;52.010;4.446;2024-03-06T01:13:08;6.90;99.90
47521;DHT22;32291;52.010;4.446;2024-03-06T01:14:12;6.90;99.90
47521;DHT22;32291;52.010;4.446;2024-03-06T01:15:19;6.90;99.90
47521;DHT22;32291;52.010;4.446;2024-03-06T01:16:26;6.90;99.90
47521;DHT22;32291;52.010;4.446;2024-03-06T01:17:33;6.90;99.90
47521;DHT22;32291;52.010;4.446;2024-03-06T01:18:40;6.90;99.90
47521;DHT22;32291;52.010;4.446;2024-03-06T01:19:46;6.90;99.90
47521;DHT22;32291;52.010;4.446;2024-03-06T01:20:48;6.90;99.90
47521;DHT22;32291;52.010;4.446;2024-03-06T01:21:55;6.90;99.90
47521;DHT22;32291;52.010;4.446;2024-03-06T01:23:03;6.90;99.90
47521;DHT22;32291;52.010;4.446;2024-03-06T01:24:10;6.90;99.90
47521;DHT22;32291;52.010;4.446;2024-03-06T01:25:17;6.90;99.90
47521;DHT22;32291;52.010;4.446;2024-03-06T01:26:24;6.90;99.90
47521;DHT22;32291;52.010;4.446;2024-03-06T01:27:30;6.90;99.90
47521;DHT22;32291;52.010;4.446;2024-03-06T01:28:37;6.90;99.90
47521;DHT22;32291;52.010;4.446;2024-03-06T01:29:39;6.90;99.90
47521;DHT22;32291;52.010;4.446;2024-03-06T01:30:46;6.90;99.90
47521;DHT22;32291;52.010;4.446;2024-03-06T01:31:48;6.90;99.90
47521;DHT22;32291;52.010;4.446;2024-03-06T01:32:55;6.90;99.90
47521;DHT22;32291;52.010;4.446;2024-03-06T01:34:02;6.90;99.90
47521;DHT22;32291;52.010;4.446;2024-03-06T01:35:09;6.90;99.90
47521;DHT22;32291;52.010;4.446;2024-03-06T01:36:16;6.90;99.90
47521;DHT22;32291;52.010;4.446;2024-03-06T01:37:23;6.90;99.90
47521;DHT22;32291;52.010;4.446;2024-03-06T01:38:25;6.90;99.90
47521;DHT22;32291;52.010;4.446;2024-03-06T01:39:32;6.90;99.90
47521;DHT22;32291;52.010;4.446;2024-03-06T01:40:43;6.90;99.90
47521;DHT22;32291;52.010;4.446;2024-03-06T01:41:50;6.90;99.90
47521;DHT22;32291;52.010;4.446;2024-03-06T01:42:57;6.90;99.90
47521;DHT22;32291;52.010;4.446;2024-03-06T01:43:59;6.90;99.90
47521;DHT22;32291;52.010;4.446;2024-03-06T01:45:03;6.90;99.90
47521;DHT22;32291;52.010;4.446;2024-03-06T01:46:10;6.90;99.90
47521;DHT22;32291;52.010;4.446;2024-03-06T01:47:12;6.90;99.90
47521;DHT22;32291;52.010;4.446;2024-03-06T01:48:16;6.90;99.90
47521;DHT22;32291;52.010;4.446;2024-03-06T01:49:27;6.90;99.90
47521;DHT22;32291;52.010;4.446;2024-03-06T01:50:29;6.90;99.90
47521;DHT22;32291;52.010;4.446;2024-03-06T01:51:36;6.90;99.90
47521;DHT22;32291;52.010;4.446;2024-03-06T01:52:44;6.90;99.90
47521;DHT22;32291;52.010;4.446;2024-03-06T01:53:53;6.90;99.90
47521;DHT22;32291;52.010;4.446;2024-03-06T01:55:00;6.90;99.90
47521;DHT22;32291;52.010;4.446;2024-03-06T01:56:08;6.90;99.90
47521;DHT22;32291;52.010;4.446;2024-03-06T01:57:19;6.90;99.90
47521;DHT22;32291;52.010;4.446;2024-03-06T01:58:27;6.90;99.90
47521;DHT22;32291;52.010;4.446;2024-03-06T01:59:30;6.90;99.90
47521;DHT22;32291;52.010;4.446;2024-03-06T02:00:38;6.90;99.90
47521;DHT22;32291;52.010;4.446;2024-03-06T02:01:40;6.90;99.90
47521;DHT22;32291;52.010;4.446;2024-03-06T02:02:47;6.90;99.90
47521;DHT22;32291;52.010;4.446;2024-03-06T02:03:54;6.90;99.90
47521;DHT22;32291;52.010;4.446;2024-03-06T02:05:02;6.90;99.90
47521;DHT22;32291;52.010;4.446;2024-03-06T02:06:10;6.90;99.90
47521;DHT22;32291;52.010;4.446;2024-03-06T02:07:19;6.90;99.90
47521;DHT22;32291;52.010;4.446;2024-03-06T02:08:22;7.00;99.90
47521;DHT22;32291;52.010;4.446;2024-03-06T02:09:29;7.00;99.90
47521;DHT22;32291;52.010;4.446;2024-03-06T02:10:31;6.90;99.90
47521;DHT22;32291;52.010;4.446;2024-03-06T02:11:33;7.00;99.90
47521;DHT22;32291;52.010;4.446;2024-03-06T02:12:40;7.00;99.90
47521;DHT22;32291;52.010;4.446;2024-03-06T02:13:49;6.90;99.90
47521;DHT22;32291;52.010;4.446;2024-03-06T02:14:52;6.90;99.90
47521;DHT22;32291;52.010;4.446;2024-03-06T02:15:59;6.90;99.90
47521;DHT22;32291;52.010;4.446;2024-03-06T02:17:06;6.90;99.90
47521;DHT22;32291;52.010;4.446;2024-03-06T02:18:14;6.90;99.90
47521;DHT22;32291;52.010;4.446;2024-03-06T02:19:16;6.90;99.90
47521;DHT22;32291;52.010;4.446;2024-03-06T02:20:24;6.90;99.90
47521;DHT22;32291;52.010;4.446;2024-03-06T02:21:31;6.90;99.90
47521;DHT22;32291;52.010;4.446;2024-03-06T02:22:40;6.90;99.90
47521;DHT22;32291;52.010;4.446;2024-03-06T02:23:47;6.80;99.90
47521;DHT22;32291;52.010;4.446;2024-03-06T02:24:50;6.80;99.90
47521;DHT22;32291;52.010;4.446;2024-03-06T02:25:52;6.80;99.90
47521;DHT22;32291;52.010;4.446;2024-03-06T02:26:59;6.80;99.90
47521;DHT22;32291;52.010;4.446;2024-03-06T02:28:06;6.80;99.90
47521;DHT22;32291;52.010;4.446;2024-03-06T02:29:13;6.70;99.90
47521;DHT22;32291;52.010;4.446;2024-03-06T02:30:21;6.70;99.90
47521;DHT22;32291;52.010;4.446;2024-03-06T02:31:23;6.70;99.90
47521;DHT22;32291;52.010;4.446;2024-03-06T02:32:25;6.70;99.90
47521;DHT22;32291;52.010;4.446;2024-03-06T02:33:27;6.60;99.90
47521;DHT22;32291;52.010;4.446;2024-03-06T02:34:30;6.60;99.90
47521;DHT22;32291;52.010;4.446;2024-03-06T02:35:32;6.60;99.90
47521;DHT22;32291;52.010;4.446;2024-03-06T02:36:39;6.60;99.90
47521;DHT22;32291;52.010;4.446;2024-03-06T02:37:45;6.50;99.90
47521;DHT22;32291;52.010;4.446;2024-03-06T02:38:52;6.50;99.90
47521;DHT22;32291;52.010;4.446;2024-03-06T02:39:59;6.40;99.90
47521;DHT22;32291;52.010;4.446;2024-03-06T02:41:02;6.40;99.90
47521;DHT22;32291;52.010;4.446;2024-03-06T02:42:09;6.40;99.90
47521;DHT22;32291;52.010;4.446;2024-03-06T02:43:15;6.40;99.90
47521;DHT22;32291;52.010;4.446;2024-03-06T02:44:23;6.40;99.90
47521;DHT22;32291;52.010;4.446;2024-03-06T02:45:30;6.30;99.90
47521;DHT22;32291;52.010;4.446;2024-03-06T02:46:39;6.30;99.90
47521;DHT22;32291;52.010;4.446;2024-03-06T02:47:41;6.30;99.90
47521;DHT22;32291;52.010;4.446;2024-03-06T02:48:48;6.30;99.90
47521;DHT22;32291;52.010;4.446;2024-03-06T02:49:55;6.30;99.90
47521;DHT22;32291;52.010;4.446;2024-03-06T02:51:02;6.30;99.90
47521;DHT22;32291;52.010;4.446;2024-03-06T02:52:04;6.30;99.90
47521;DHT22;32291;52.010;4.446;2024-03-06T02:53:11;6.30;99.90
47521;DHT22;32291;52.010;4.446;2024-03-06T02:54:21;6.30;99.90
47521;DHT22;32291;52.010;4.446;2024-03-06T02:55:28;6.20;99.90
47521;DHT22;32291;52.010;4.446;2024-03-06T02:56:34;6.20;99.90
47521;DHT22;32291;52.010;4.446;2024-03-06T02:57:41;6.20;99.90
47521;DHT22;32291;52.010;4.446;2024-03-06T02:58:43;6.20;99.90
47521;DHT22;32291;52.010;4.446;2024-03-06T02:59:51;6.10;99.90
47521;DHT22;32291;52.010;4.446;2024-03-06T03:00:57;6.00;99.90
47521;DHT22;32291;52.010;4.446;2024-03-06T03:02:04;6.00;99.90
47521;DHT22;32291;52.010;4.446;2024-03-06T03:03:11;6.00;99.90
47521;DHT22;32291;52.010;4.446;2024-03-06T03:04:21;6.00;99.90
47521;DHT22;32291;52.010;4.446;2024-03-06T03:05:28;6.00;99.90
47521;DHT22;32291;52.010;4.446;2024-03-06T03:06:34;6.00;99.90
47521;DHT22;32291;52.010;4.446;2024-03-06T03:07:37;6.00;99.90
47521;DHT22;32291;52.010;4.446;2024-03-06T03:08:45;6.00;99.90
47521;DHT22;32291;52.010;4.446;2024-03-06T03:09:52;6.00;99.90
47521;DHT22;32291;52.010;4.446;2024-03-06T03:10:59;6.00;99.90
47521;DHT22;32291;52.010;4.446;2024-03-06T03:12:06;6.00;99.90
47521;DHT22;32291;52.010;4.446;2024-03-06T03:13:08;6.00;99.90
47521;DHT22;32291;52.010;4.446;2024-03-06T03:14:11;6.00;99.90
47521;DHT22;32291;52.010;4.446;2024-03-06T03:15:18;6.00;99.90
47521;DHT22;32291;52.010;4.446;2024-03-06T03:16:20;6.10;99.90
47521;DHT22;32291;52.010;4.446;2024-03-06T03:17:27;6.10;99.90
47521;DHT22;32291;52.010;4.446;2024-03-06T03:18:34;6.00;99.90
47521;DHT22;32291;52.010;4.446;2024-03-06T03:19:41;6.10;99.90
47521;DHT22;32291;52.010;4.446;2024-03-06T03:20:47;6.10;99.90
47521;DHT22;32291;52.010;4.446;2024-03-06T03:21:54;6.10;99.90
47521;DHT22;32291;52.010;4.446;2024-03-06T03:22:56;6.10;99.90
47521;DHT22;32291;52.010;4.446;2024-03-06T03:24:03;6.10;99.90
47521;DHT22;32291;52.010;4.446;2024-03-06T03:25:11;6.10;99.90
47521;DHT22;32291;52.010;4.446;2024-03-06T03:26:19;6.20;99.90
47521;DHT22;32291;52.010;4.446;2024-03-06T03:27:25;6.10;99.90
47521;DHT22;32291;52.010;4.446;2024-03-06T03:28:32;6.20;99.90
47521;DHT22;32291;52.010;4.446;2024-03-06T03:29:39;6.20;99.90
47521;DHT22;32291;52.010;4.446;2024-03-06T03:30:46;6.20;99.90
47521;DHT22;32291;52.010;4.446;2024-03-06T03:31:53;6.30;99.90
47521;DHT22;32291;52.010;4.446;2024-03-06T03:32:59;6.30;99.90
47521;DHT22;32291;52.010;4.446;2024-03-06T03:34:01;6.30;99.90
47521;DHT22;32291;52.010;4.446;2024-03-06T03:35:08;6.30;99.90
47521;DHT22;32291;52.010;4.446;2024-03-06T03:36:15;6.30;99.90
47521;DHT22;32291;52.010;4.446;2024-03-06T03:37:22;6.30;99.90
47521;DHT22;32291;52.010;4.446;2024-03-06T03:38:29;6.40;99.90
47521;DHT22;32291;52.010;4.446;2024-03-06T03:39:36;6.30;99.90
47521;DHT22;32291;52.010;4.446;2024-03-06T03:40:38;6.50;99.90
47521;DHT22;32291;52.010;4.446;2024-03-06T03:41:46;6.40;99.90
47521;DHT22;32291;52.010;4.446;2024-03-06T03:42:53;6.40;99.90
47521;DHT22;32291;52.010;4.446;2024-03-06T03:44:00;6.50;99.90
47521;DHT22;32291;52.010;4.446;2024-03-06T03:45:07;6.40;99.90
47521;DHT22;32291;52.010;4.446;2024-03-06T03:46:14;6.40;99.90
47521;DHT22;32291;52.010;4.446;2024-03-06T03:47:16;6.50;99.90
47521;DHT22;32291;52.010;4.446;2024-03-06T03:48:24;6.50;99.90
47521;DHT22;32291;52.010;4.446;2024-03-06T03:49:31;6.50;99.90
47521;DHT22;32291;52.010;4.446;2024-03-06T03:50:38;6.50;99.90
47521;DHT22;32291;52.010;4.446;2024-03-06T03:51:45;6.50;99.90
47521;DHT22;32291;52.010;4.446;2024-03-06T03:52:52;6.50;99.90
47521;DHT22;32291;52.010;4.446;2024-03-06T03:53:59;6.50;99.90
47521;DHT22;32291;52.010;4.446;2024-03-06T03:55:07;6.50;99.90
47521;DHT22;32291;52.010;4.446;2024-03-06T03:56:14;6.50;99.90
47521;DHT22;32291;52.010;4.446;2024-03-06T03:57:21;6.60;99.90
47521;DHT22;32291;52.010;4.446;2024-03-06T03:58:28;6.50;99.90
47521;DHT22;32291;52.010;4.446;2024-03-06T03:59:35;6.50;99.90
47521;DHT22;32291;52.010;4.446;2024-03-06T04:00:43;6.50;99.90
47521;DHT22;32291;52.010;4.446;2024-03-06T04:01:50;6.50;99.90
47521;DHT22;32291;52.010;4.446;2024-03-06T04:02:57;6.50;99.90
47521;DHT22;32291;52.010;4.446;2024-03-06T04:04:04;6.60;99.90
47521;DHT22;32291;52.010;4.446;2024-03-06T04:05:11;6.60;99.90
47521;DHT22;32291;52.010;4.446;2024-03-06T04:06:14;6.50;99.90
47521;DHT22;32291;52.010;4.446;2024-03-06T04:07:21;6.60;99.90
47521;DHT22;32291;52.010;4.446;2024-03-06T04:08:28;6.60;99.90
47521;DHT22;32291;52.010;4.446;2024-03-06T04:09:35;6.50;99.90
47521;DHT22;32291;52.010;4.446;2024-03-06T04:10:43;6.50;99.90
47521;DHT22;32291;52.010;4.446;2024-03-06T04:11:53;6.50;99.90
47521;DHT22;32291;52.010;4.446;2024-03-06T04:13:00;6.70;99.90
47521;DHT22;32291;52.010;4.446;2024-03-06T04:14:07;6.60;99.90
47521;DHT22;32291;52.010;4.446;2024-03-06T04:15:16;6.50;99.90
47521;DHT22;32291;52.010;4.446;2024-03-06T04:16:23;6.60;99.90
47521;DHT22;32291;52.010;4.446;2024-03-06T04:17:30;6.60;99.90
47521;DHT22;32291;52.010;4.446;2024-03-06T04:18:36;6.50;99.90
47521;DHT22;32291;52.010;4.446;2024-03-06T04:19:39;6.40;99.90
47521;DHT22;32291;52.010;4.446;2024-03-06T04:20:41;6.40;99.90
47521;DHT22;32291;52.010;4.446;2024-03-06T04:21:48;6.30;99.90
47521;DHT22;32291;52.010;4.446;2024-03-06T04:22:50;6.40;99.90
47521;DHT22;32291;52.010;4.446;2024-03-06T04:23:57;6.30;99.90
47521;DHT22;32291;52.010;4.446;2024-03-06T04:25:04;6.20;99.90
47521;DHT22;32291;52.010;4.446;2024-03-06T04:26:08;6.10;99.90
47521;DHT22;32291;52.010;4.446;2024-03-06T04:27:11;6.10;99.90
47521;DHT22;32291;52.010;4.446;2024-03-06T04:28:17;6.10;99.90
47521;DHT22;32291;52.010;4.446;2024-03-06T04:29:24;6.00;99.90
47521;DHT22;32291;52.010;4.446;2024-03-06T04:30:31;5.90;99.90
47521;DHT22;32291;52.010;4.446;2024-03-06T04:31:35;5.80;99.90
47521;DHT22;32291;52.010;4.446;2024-03-06T04:32:42;5.80;99.90
47521;DHT22;32291;52.010;4.446;2024-03-06T04:33:49;5.80;99.90
47521;DHT22;32291;52.010;4.446;2024-03-06T04:34:56;5.70;99.90
47521;DHT22;32291;52.010;4.446;2024-03-06T04:36:04;5.70;99.90
47521;DHT22;32291;52.010;4.446;2024-03-06T04:37:15;5.60;99.90
47521;DHT22;32291;52.010;4.446;2024-03-06T04:38:22;5.50;99.90
47521;DHT22;32291;52.010;4.446;2024-03-06T04:39:29;5.40;99.90
47521;DHT22;32291;52.010;4.446;2024-03-06T04:40:31;5.40;99.90
47521;DHT22;32291;52.010;4.446;2024-03-06T04:41:34;5.40;99.90
47521;DHT22;32291;52.010;4.446;2024-03-06T04:42:36;5.40;99.90
47521;DHT22;32291;52.010;4.446;2024-03-06T04:43:45;5.30;99.90
47521;DHT22;32291;52.010;4.446;2024-03-06T04:44:52;5.20;99.90
47521;DHT22;32291;52.010;4.446;2024-03-06T04:45:59;5.20;99.90
47521;DHT22;32291;52.010;4.446;2024-03-06T04:47:06;5.10;99.90
47521;DHT22;32291;52.010;4.446;2024-03-06T04:48:13;5.10;99.90
47521;DHT22;32291;52.010;4.446;2024-03-06T04:49:19;5.10;99.90
47521;DHT22;32291;52.010;4.446;2024-03-06T04:50:26;5.00;99.90
47521;DHT22;32291;52.010;4.446;2024-03-06T04:51:33;5.00;99.90
47521;DHT22;32291;52.010;4.446;2024-03-06T04:52:37;5.00;99.90
47521;DHT22;32291;52.010;4.446;2024-03-06T04:53:45;4.90;99.90
47521;DHT22;32291;52.010;4.446;2024-03-06T04:54:47;4.90;99.90
47521;DHT22;32291;52.010;4.446;2024-03-06T04:55:54;4.90;99.90
47521;DHT22;32291;52.010;4.446;2024-03-06T04:57:01;4.80;99.90
47521;DHT22;32291;52.010;4.446;2024-03-06T04:58:04;4.70;99.90
47521;DHT22;32291;52.010;4.446;2024-03-06T04:59:11;4.70;99.90
47521;DHT22;32291;52.010;4.446;2024-03-06T05:00:18;4.60;99.90
47521;DHT22;32291;52.010;4.446;2024-03-06T05:01:25;4.60;99.90
47521;DHT22;32291;52.010;4.446;2024-03-06T05:02:32;4.60;99.90
47521;DHT22;32291;52.010;4.446;2024-03-06T05:03:44;4.60;99.90
47521;DHT22;32291;52.010;4.446;2024-03-06T05:04:46;4.60;99.90
47521;DHT22;32291;52.010;4.446;2024-03-06T05:05:48;4.50;99.90
47521;DHT22;32291;52.010;4.446;2024-03-06T05:06:55;4.50;99.90
47521;DHT22;32291;52.010;4.446;2024-03-06T05:08:02;4.50;99.90
47521;DHT22;32291;52.010;4.446;2024-03-06T05:09:04;4.50;99.90
47521;DHT22;32291;52.010;4.446;2024-03-06T05:10:12;4.40;99.90
47521;DHT22;32291;52.010;4.446;2024-03-06T05:11:14;4.50;99.90
47521;DHT22;32291;52.010;4.446;2024-03-06T05:12:16;4.40;99.90
47521;DHT22;32291;52.010;4.446;2024-03-06T05:13:23;4.40;99.90
47521;DHT22;32291;52.010;4.446;2024-03-06T05:14:30;4.40;99.90
47521;DHT22;32291;52.010;4.446;2024-03-06T05:15:32;4.40;99.90
47521;DHT22;32291;52.010;4.446;2024-03-06T05:16:38;4.50;99.90
47521;DHT22;32291;52.010;4.446;2024-03-06T05:17:41;4.50;99.90
47521;DHT22;32291;52.010;4.446;2024-03-06T05:18:47;4.50;99.90
47521;DHT22;32291;52.010;4.446;2024-03-06T05:19:55;4.50;99.90
47521;DHT22;32291;52.010;4.446;2024-03-06T05:21:02;4.50;99.90
47521;DHT22;32291;52.010;4.446;2024-03-06T05:22:08;4.50;99.90
47521;DHT22;32291;52.010;4.446;2024-03-06T05:23:15;4.40;99.90
47521;DHT22;32291;52.010;4.446;2024-03-06T05:24:24;4.40;99.90
47521;DHT22;32291;52.010;4.446;2024-03-06T05:25:30;4.30;99.90
47521;DHT22;32291;52.010;4.446;2024-03-06T05:26:37;4.20;99.90
47521;DHT22;32291;52.010;4.446;2024-03-06T05:27:44;4.30;99.90
47521;DHT22;32291;52.010;4.446;2024-03-06T05:28:51;4.20;99.90
47521;DHT22;32291;52.010;4.446;2024-03-06T05:29:58;4.20;99.90
47521;DHT22;32291;52.010;4.446;2024-03-06T05:31:18;4.20;99.90
47521;DHT22;32291;52.010;4.446;2024-03-06T05:32:26;4.10;99.90
47521;DHT22;32291;52.010;4.446;2024-03-06T05:33:28;4.10;99.90
47521;DHT22;32291;52.010;4.446;2024-03-06T05:34:36;4.10;99.90
47521;DHT22;32291;52.010;4.446;2024-03-06T05:35:44;4.00;99.90
47521;DHT22;32291;52.010;4.446;2024-03-06T05:36:51;4.00;99.90
47521;DHT22;32291;52.010;4.446;2024-03-06T05:37:58;4.00;99.90
47521;DHT22;32291;52.010;4.446;2024-03-06T05:39:04;4.00;99.90
47521;DHT22;32291;52.010;4.446;2024-03-06T05:40:18;3.90;99.90
47521;DHT22;32291;52.010;4.446;2024-03-06T05:41:25;3.90;99.90
47521;DHT22;32291;52.010;4.446;2024-03-06T05:42:27;3.90;99.90
47521;DHT22;32291;52.010;4.446;2024-03-06T05:43:34;3.90;99.90
47521;DHT22;32291;52.010;4.446;2024-03-06T05:44:41;3.90;99.90
47521;DHT22;32291;52.010;4.446;2024-03-06T05:45:48;3.80;99.90
47521;DHT22;32291;52.010;4.446;2024-03-06T05:46:55;3.80;99.90
47521;DHT22;32291;52.010;4.446;2024-03-06T05:47:57;3.80;99.90
47521;DHT22;32291;52.010;4.446;2024-03-06T05:49:04;3.80;99.90
47521;DHT22;32291;52.010;4.446;2024-03-06T05:50:11;3.70;99.90
47521;DHT22;32291;52.010;4.446;2024-03-06T05:51:18;3.70;99.90
47521;DHT22;32291;52.010;4.446;2024-03-06T05:52:24;3.70;99.90
47521;DHT22;32291;52.010;4.446;2024-03-06T05:53:36;3.60;99.90
47521;DHT22;32291;52.010;4.446;2024-03-06T05:54:44;3.60;99.90
47521;DHT22;32291;52.010;4.446;2024-03-06T05:55:51;3.60;99.90
47521;DHT22;32291;52.010;4.446;2024-03-06T05:56:59;3.60;99.90
47521;DHT22;32291;52.010;4.446;2024-03-06T05:58:01;3.60;99.90
47521;DHT22;32291;52.010;4.446;2024-03-06T05:59:03;3.50;99.90
47521;DHT22;32291;52.010;4.446;2024-03-06T06:00:11;3.60;99.90
47521;DHT22;32291;52.010;4.446;2024-03-06T06:01:19;3.50;99.90
47521;DHT22;32291;52.010;4.446;2024-03-06T06:02:26;3.50;99.90
47521;DHT22;32291;52.010;4.446;2024-03-06T06:03:33;3.50;99.90
47521;DHT22;32291;52.010;4.446;2024-03-06T06:04:40;3.50;99.90
47521;DHT22;32291;52.010;4.446;2024-03-06T06:05:48;3.50;99.90
47521;DHT22;32291;52.010;4.446;2024-03-06T06:06:50;3.50;99.90
47521;DHT22;32291;52.010;4.446;2024-03-06T06:07:57;3.50;99.90
47521;DHT22;32291;52.010;4.446;2024-03-06T06:08:59;3.40;99.90
47521;DHT22;32291;52.010;4.446;2024-03-06T06:10:06;3.40;99.90
47521;DHT22;32291;52.010;4.446;2024-03-06T06:11:16;3.40;99.90
47521;DHT22;32291;52.010;4.446;2024-03-06T06:12:18;3.40;99.90
47521;DHT22;32291;52.010;4.446;2024-03-06T06:13:21;3.40;99.90
47521;DHT22;32291;52.010;4.446;2024-03-06T06:14:27;3.40;99.90
47521;DHT22;32291;52.010;4.446;2024-03-06T06:15:36;3.40;99.90
47521;DHT22;32291;52.010;4.446;2024-03-06T06:16:55;3.40;99.90
47521;DHT22;32291;52.010;4.446;2024-03-06T06:18:44;3.30;99.90
47521;DHT22;32291;52.010;4.446;2024-03-06T06:20:13;3.40;99.90
47521;DHT22;32291;52.010;4.446;2024-03-06T06:21:24;3.30;99.90
47521;DHT22;32291;52.010;4.446;2024-03-06T06:22:28;3.30;99.90
47521;DHT22;32291;52.010;4.446;2024-03-06T06:23:30;3.30;99.90
47521;DHT22;32291;52.010;4.446;2024-03-06T06:24:33;3.50;99.90
47521;DHT22;32291;52.010;4.446;2024-03-06T06:25:39;3.30;99.90
47521;DHT22;32291;52.010;4.446;2024-03-06T06:26:42;3.40;99.90
47521;DHT22;32291;52.010;4.446;2024-03-06T06:27:49;3.30;99.90
47521;DHT22;32291;52.010;4.446;2024-03-06T06:28:56;3.30;99.90
47521;DHT22;32291;52.010;4.446;2024-03-06T06:29:59;3.30;99.90
47521;DHT22;32291;52.010;4.446;2024-03-06T06:31:01;3.30;99.90
47521;DHT22;32291;52.010;4.446;2024-03-06T06:32:07;3.30;99.90
47521;DHT22;32291;52.010;4.446;2024-03-06T06:33:15;3.30;99.90
47521;DHT22;32291;52.010;4.446;2024-03-06T06:34:17;3.30;99.90
47521;DHT22;32291;52.010;4.446;2024-03-06T06:35:24;3.30;99.90
47521;DHT22;32291;52.010;4.446;2024-03-06T06:36:32;3.30;99.90
47521;DHT22;32291;52.010;4.446;2024-03-06T06:37:39;3.30;99.90
47521;DHT22;32291;52.010;4.446;2024-03-06T06:38:47;3.30;99.90
47521;DHT22;32291;52.010;4.446;2024-03-06T06:39:54;3.30;99.90
47521;DHT22;32291;52.010;4.446;2024-03-06T06:40:57;3.40;99.90
47521;DHT22;32291;52.010;4.446;2024-03-06T06:41:59;3.40;99.90
47521;DHT22;32291;52.010;4.446;2024-03-06T06:43:06;3.40;99.90
47521;DHT22;32291;52.010;4.446;2024-03-06T06:44:14;3.40;99.90
47521;DHT22;32291;52.010;4.446;2024-03-06T06:45:21;3.40;99.90
47521;DHT22;32291;52.010;4.446;2024-03-06T06:46:28;3.40;99.90
47521;DHT22;32291;52.010;4.446;2024-03-06T06:47:30;3.40;99.90
47521;DHT22;32291;52.010;4.446;2024-03-06T06:48:40;3.40;99.90
47521;DHT22;32291;52.010;4.446;2024-03-06T06:49:49;3.50;99.90
47521;DHT22;32291;52.010;4.446;2024-03-06T06:50:51;3.40;99.90
47521;DHT22;32291;52.010;4.446;2024-03-06T06:51:58;3.40;99.90
47521;DHT22;32291;52.010;4.446;2024-03-06T06:53:00;3.40;99.90
47521;DHT22;32291;52.010;4.446;2024-03-06T06:54:04;3.40;99.90
47521;DHT22;32291;52.010;4.446;2024-03-06T06:55:06;3.50;99.90
47521;DHT22;32291;52.010;4.446;2024-03-06T06:56:17;3.50;99.90
47521;DHT22;32291;52.010;4.446;2024-03-06T06:57:19;3.60;99.90
47521;DHT22;32291;52.010;4.446;2024-03-06T06:58:26;3.60;99.90
47521;DHT22;32291;52.010;4.446;2024-03-06T06:59:33;3.70;99.90
47521;DHT22;32291;52.010;4.446;2024-03-06T07:00:36;3.70;99.90
47521;DHT22;32291;52.010;4.446;2024-03-06T07:01:43;3.80;99.90
47521;DHT22;32291;52.010;4.446;2024-03-06T07:02:50;3.80;99.90
47521;DHT22;32291;52.010;4.446;2024-03-06T07:03:52;3.90;99.90
47521;DHT22;32291;52.010;4.446;2024-03-06T07:04:54;4.00;99.90